Time;durP1;ratioP1;P1;durP2;ratioP2;P2;SDS_P1;SDS_P2;PMS_P1;PMS_P2;Temp;Humidity;BMP_temperature;BMP_pressure;BME280_temperature;BME280_humidity;BME280_pressure;Samples;Min_cycle;Max_cycle;Signal;HPM_P1;HPM_P2
2022/03/18 00:02:03;;;;;;;11.98;5.20;;;0.70;99.90;;;;;;5063605;28;20041;-69
2022/03/18 00:04:29;;;;;;;10.52;5.22;;;0.70;99.90;;;;;;5048930;28;20032;-69
2022/03/18 00:06:54;;;;;;;11.93;5.30;;;0.70;99.90;;;;;;5048068;28;20044;-69
2022/03/18 00:09:21;;;;;;;15.77;6.18;;;0.70;99.90;;;;;;5045666;28;20488;-69
2022/03/18 00:11:46;;;;;;;12.48;5.80;;;0.70;99.90;;;;;;5047899;28;20040;-69
2022/03/18 00:14:12;;;;;;;15.18;6.50;;;0.70;99.90;;;;;;5064567;28;20424;-69
2022/03/18 00:16:37;;;;;;;13.90;6.22;;;0.80;99.90;;;;;;5067180;28;20041;-69
2022/03/18 00:19:03;;;;;;;13.07;5.97;;;0.70;99.90;;;;;;5062564;28;20510;-69
2022/03/18 00:21:28;;;;;;;12.30;6.30;;;0.80;99.90;;;;;;5033450;28;20112;-69
2022/03/18 00:23:54;;;;;;;10.02;5.30;;;0.80;99.90;;;;;;5050123;28;20436;-69
2022/03/18 00:26:19;;;;;;;11.82;5.88;;;0.80;99.90;;;;;;5052097;28;20059;-69
2022/03/18 00:28:45;;;;;;;19.77;6.82;;;0.80;99.90;;;;;;5046019;28;20043;-69
2022/03/18 00:31:12;;;;;;;12.18;6.18;;;0.80;99.90;;;;;;5050511;28;20048;-69
2022/03/18 00:33:37;;;;;;;13.82;6.00;;;0.70;99.90;;;;;;5058186;28;20041;-69
2022/03/18 00:36:03;;;;;;;12.80;5.70;;;0.60;99.90;;;;;;5031143;28;20040;-69
2022/03/18 00:38:29;;;;;;;17.67;6.47;;;0.50;99.90;;;;;;5057175;28;20095;-69
2022/03/18 00:40:56;;;;;;;16.63;6.65;;;0.40;99.90;;;;;;5052176;28;20268;-69
2022/03/18 00:43:22;;;;;;;12.50;5.32;;;0.30;99.90;;;;;;5051122;28;20047;-69
2022/03/18 00:45:48;;;;;;;11.43;6.32;;;0.30;99.90;;;;;;5051003;28;20539;-69
2022/03/18 00:53:42;;;;;;;14.02;6.05;;;0.20;99.90;;;;;;5046243;28;20072;-69
2022/03/18 00:56:07;;;;;;;11.80;6.03;;;0.20;99.90;;;;;;5051042;28;20407;-69
2022/03/18 00:58:33;;;;;;;13.95;6.75;;;0.20;99.90;;;;;;5046986;28;20037;-69
2022/03/18 01:00:58;;;;;;;15.45;6.47;;;0.20;99.90;;;;;;5047968;28;20029;-69
2022/03/18 01:03:24;;;;;;;15.43;6.82;;;0.10;99.90;;;;;;5049042;28;20041;-69
2022/03/18 01:05:49;;;;;;;17.95;6.38;;;0.20;99.90;;;;;;5049820;28;20045;-69
2022/03/18 01:08:15;;;;;;;11.23;5.65;;;0.20;99.90;;;;;;5052460;28;20087;-69
2022/03/18 01:10:40;;;;;;;15.45;6.22;;;0.20;99.90;;;;;;5035385;28;20040;-69
2022/03/18 01:13:06;;;;;;;15.07;6.50;;;0.20;99.90;;;;;;5050776;28;20037;-69
2022/03/18 01:15:33;;;;;;;10.52;5.30;;;0.20;99.90;;;;;;5050878;28;20040;-69
2022/03/18 01:17:58;;;;;;;10.30;5.40;;;0.20;99.90;;;;;;5050498;28;20167;-69
2022/03/18 01:20:24;;;;;;;11.55;5.82;;;0.30;99.90;;;;;;5062913;28;20045;-69
2022/03/18 01:22:50;;;;;;;10.02;5.32;;;0.30;99.90;;;;;;5057388;28;20102;-69
2022/03/18 01:25:15;;;;;;;11.20;5.13;;;0.20;99.90;;;;;;5054739;28;20041;-69
2022/03/18 01:27:41;;;;;;;8.73;4.82;;;0.20;99.90;;;;;;5049727;28;20040;-69
2022/03/18 01:30:07;;;;;;;17.48;6.30;;;0.20;99.90;;;;;;5060386;28;20490;-69
2022/03/18 01:32:33;;;;;;;13.35;6.00;;;0.20;99.90;;;;;;5050118;28;20106;-69
2022/03/18 01:35:00;;;;;;;13.85;6.70;;;0.10;99.90;;;;;;5050264;28;21902;-69
2022/03/18 01:37:26;;;;;;;12.63;5.93;;;0.20;99.90;;;;;;5049476;28;20036;-69
2022/03/18 01:39:52;;;;;;;12.77;6.38;;;0.20;99.90;;;;;;5057116;28;20037;-69
2022/03/18 01:42:18;;;;;;;13.88;6.22;;;0.20;99.90;;;;;;5049853;28;20048;-69
2022/03/18 01:44:46;;;;;;;16.02;6.55;;;0.10;99.90;;;;;;5048687;28;20090;-69
2022/03/18 01:47:12;;;;;;;13.55;6.00;;;0.20;99.90;;;;;;5052596;28;20048;-69
2022/03/18 01:49:38;;;;;;;14.05;6.35;;;0.10;99.90;;;;;;5048129;28;20493;-69
2022/03/18 01:52:09;;;;;;;13.50;6.40;;;0.10;99.90;;;;;;5048443;28;20455;-69
2022/03/18 01:54:44;;;;;;;15.10;7.32;;;0.10;99.90;;;;;;5047878;28;20495;-69
2022/03/18 01:57:10;;;;;;;15.52;7.03;;;0.10;99.90;;;;;;5045010;28;20484;-69
2022/03/18 01:59:36;;;;;;;16.10;7.40;;;0.10;99.90;;;;;;5049125;28;20048;-69
2022/03/18 02:02:02;;;;;;;16.63;7.13;;;0.10;99.90;;;;;;5049612;28;20047;-69
2022/03/18 02:04:27;;;;;;;16.88;7.43;;;0.10;99.90;;;;;;5033144;28;20120;-69
2022/03/18 02:06:54;;;;;;;16.35;7.10;;;0.10;99.90;;;;;;5049329;28;20044;-69
2022/03/18 02:09:20;;;;;;;15.20;6.65;;;0.00;99.90;;;;;;5047294;28;20053;-69
2022/03/18 02:11:46;;;;;;;14.70;5.70;;;0.00;99.90;;;;;;5047018;28;20029;-69
2022/03/18 02:14:12;;;;;;;15.23;6.90;;;0.00;99.90;;;;;;5048574;28;20099;-70
2022/03/18 02:16:41;;;;;;;15.38;7.03;;;0.00;99.90;;;;;;5048864;28;20420;-70
2022/03/18 02:19:07;;;;;;;16.00;6.63;;;0.00;99.90;;;;;;5047827;28;20049;-70
2022/03/18 02:21:37;;;;;;;16.27;7.28;;;0.00;99.90;;;;;;5064682;28;20093;-70
2022/03/18 02:24:03;;;;;;;14.43;6.70;;;0.00;99.90;;;;;;5065793;28;20033;-70
2022/03/18 02:26:29;;;;;;;17.70;7.25;;;0.00;99.90;;;;;;5043507;28;20292;-70
2022/03/18 02:28:57;;;;;;;18.85;7.25;;;0.10;99.90;;;;;;5046350;28;20498;-69
2022/03/18 02:31:28;;;;;;;18.77;8.13;;;0.10;99.90;;;;;;5055897;28;20075;-69
2022/03/18 02:33:53;;;;;;;20.38;8.18;;;0.10;99.90;;;;;;5056116;28;20131;-69
2022/03/18 02:36:19;;;;;;;18.10;7.53;;;0.10;99.90;;;;;;5063034;28;20131;-69
2022/03/18 02:38:44;;;;;;;15.50;8.05;;;0.10;99.90;;;;;;5046901;28;20048;-70
2022/03/18 02:41:11;;;;;;;17.05;7.57;;;0.00;99.90;;;;;;5032109;28;20037;-69
2022/03/18 02:43:38;;;;;;;15.48;7.05;;;-0.10;99.90;;;;;;5047762;28;20487;-69
2022/03/18 02:46:03;;;;;;;17.00;7.15;;;-0.20;99.90;;;;;;5044395;28;20379;-70
2022/03/18 02:48:29;;;;;;;9.90;6.28;;;-0.20;99.90;;;;;;5051533;28;20043;-70
2022/03/18 02:50:54;;;;;;;12.48;7.10;;;-0.30;99.90;;;;;;5048686;28;20503;-70
2022/03/18 02:53:20;;;;;;;12.65;6.45;;;-0.30;99.90;;;;;;5065909;28;20041;-70
2022/03/18 02:55:45;;;;;;;11.98;6.47;;;-0.40;99.90;;;;;;5049291;28;20040;-70
2022/03/18 02:58:11;;;;;;;16.15;6.95;;;-0.40;99.90;;;;;;5048772;28;20063;-70
2022/03/18 03:00:36;;;;;;;19.10;7.22;;;-0.40;99.90;;;;;;5061498;28;20041;-70
2022/03/18 03:03:02;;;;;;;19.98;8.30;;;-0.30;99.90;;;;;;5045696;28;20070;-70
2022/03/18 03:08:12;;;;;;;21.50;8.93;;;-0.20;99.90;;;;;;5049061;28;20091;-70
2022/03/18 03:10:38;;;;;;;15.82;8.48;;;-0.30;99.90;;;;;;5060770;28;20051;-70
2022/03/18 03:13:10;;;;;;;20.55;8.50;;;-0.20;99.90;;;;;;5064170;28;20476;-70
2022/03/18 03:15:36;;;;;;;15.43;8.63;;;-0.20;99.90;;;;;;5049017;28;20171;-70
2022/03/18 03:18:01;;;;;;;20.48;8.73;;;-0.20;99.90;;;;;;5046221;28;20064;-70
2022/03/18 03:20:27;;;;;;;23.83;8.60;;;-0.20;99.90;;;;;;5048591;28;20044;-70
2022/03/18 03:22:53;;;;;;;19.10;8.60;;;-0.20;99.90;;;;;;5049709;28;20041;-70
2022/03/18 03:25:18;;;;;;;20.55;8.55;;;-0.20;99.90;;;;;;5049155;28;20044;-70
2022/03/18 03:27:44;;;;;;;24.17;9.35;;;-0.20;99.90;;;;;;5048331;28;20484;-70
2022/03/18 03:30:10;;;;;;;18.95;8.85;;;-0.20;99.90;;;;;;5063178;28;20052;-71
2022/03/18 03:32:36;;;;;;;15.85;8.30;;;-0.20;99.90;;;;;;5048313;28;20051;-71
2022/03/18 03:35:04;;;;;;;17.52;8.55;;;-0.20;99.90;;;;;;5065944;28;20075;-70
2022/03/18 03:37:30;;;;;;;18.25;8.43;;;-0.30;99.90;;;;;;5048275;28;20056;-70
2022/03/18 03:39:55;;;;;;;10.82;6.45;;;-0.20;99.90;;;;;;5047618;28;20045;-70
2022/03/18 03:42:21;;;;;;;18.85;6.95;;;-0.20;99.90;;;;;;5048889;28;20480;-71
2022/03/18 03:44:47;;;;;;;12.45;6.18;;;-0.30;99.90;;;;;;5046184;28;20079;-70
2022/03/18 03:47:14;;;;;;;13.20;6.90;;;-0.30;99.90;;;;;;5061888;28;20495;-71
2022/03/18 03:49:40;;;;;;;12.25;6.68;;;-0.30;99.90;;;;;;5050781;28;20034;-70
2022/03/18 03:52:08;;;;;;;15.73;7.35;;;-0.20;99.90;;;;;;5053744;28;20040;-70
2022/03/18 03:54:34;;;;;;;13.68;7.03;;;-0.20;99.90;;;;;;5037403;28;20080;-70
2022/03/18 03:57:00;;;;;;;14.80;6.95;;;-0.20;99.90;;;;;;5048312;28;20041;-71
2022/03/18 03:59:25;;;;;;;15.70;7.55;;;-0.20;99.90;;;;;;5067051;28;20029;-71
2022/03/18 04:01:51;;;;;;;16.85;8.43;;;-0.10;99.90;;;;;;5049441;28;20044;-71
2022/03/18 04:04:16;;;;;;;14.80;7.97;;;-0.20;99.90;;;;;;5052946;28;20041;-71
2022/03/18 04:06:42;;;;;;;14.07;7.15;;;-0.10;99.90;;;;;;5067470;28;20411;-71
2022/03/18 04:09:08;;;;;;;12.50;6.75;;;-0.20;99.90;;;;;;5052356;28;20045;-71
2022/03/18 04:11:33;;;;;;;12.35;7.30;;;-0.20;99.90;;;;;;5052515;28;20481;-71
2022/03/18 04:13:59;;;;;;;12.45;7.30;;;-0.20;99.90;;;;;;5051809;28;20554;-71
2022/03/18 04:16:24;;;;;;;11.77;7.40;;;-0.20;99.90;;;;;;5034655;28;20048;-71
2022/03/18 04:18:50;;;;;;;16.00;7.45;;;-0.20;99.90;;;;;;5050549;28;20098;-71
2022/03/18 04:21:16;;;;;;;13.88;8.23;;;-0.20;99.90;;;;;;5052979;28;20064;-71
2022/03/18 04:23:41;;;;;;;18.20;8.93;;;-0.20;99.90;;;;;;5067028;28;20052;-71
2022/03/18 04:26:07;;;;;;;22.38;10.10;;;-0.10;99.90;;;;;;5031928;28;20041;-71
2022/03/18 04:28:33;;;;;;;21.88;10.77;;;-0.20;99.90;;;;;;5051691;28;20119;-71
2022/03/18 04:30:59;;;;;;;23.05;11.10;;;-0.20;99.90;;;;;;5051505;28;20082;-71
2022/03/18 04:33:24;;;;;;;19.85;7.78;;;-0.10;99.90;;;;;;5052072;28;20044;-71
2022/03/18 04:35:51;;;;;;;18.20;8.18;;;-0.20;99.90;;;;;;5053642;28;20045;-71
2022/03/18 04:38:17;;;;;;;16.50;8.00;;;-0.20;99.90;;;;;;5034870;28;20150;-72
2022/03/18 04:40:43;;;;;;;16.70;8.32;;;-0.30;99.90;;;;;;5049930;28;20503;-71
2022/03/18 04:43:08;;;;;;;24.92;9.15;;;-0.30;99.90;;;;;;5049273;28;20045;-72
2022/03/18 04:45:34;;;;;;;15.13;7.90;;;-0.40;99.90;;;;;;5033696;28;20049;-72
2022/03/18 04:47:59;;;;;;;27.25;10.30;;;-0.40;99.90;;;;;;5042553;28;20518;-72
2022/03/18 04:50:25;;;;;;;22.35;9.02;;;-0.40;99.90;;;;;;5064967;28;20385;-72
2022/03/18 04:52:50;;;;;;;16.75;8.32;;;-0.40;99.90;;;;;;5051982;28;20116;-72
2022/03/18 04:55:16;;;;;;;15.57;8.38;;;-0.40;99.90;;;;;;5047006;28;20051;-72
2022/03/18 04:57:42;;;;;;;15.90;8.10;;;-0.40;99.90;;;;;;5059314;28;20085;-72
2022/03/18 05:00:08;;;;;;;16.75;8.15;;;-0.50;99.90;;;;;;5058088;28;20124;-72
2022/03/18 05:02:36;;;;;;;18.58;8.57;;;-0.40;99.90;;;;;;5054065;28;20040;-72
2022/03/18 05:05:02;;;;;;;22.48;7.88;;;-0.50;99.90;;;;;;5050805;28;20052;-72
2022/03/18 05:07:28;;;;;;;17.42;8.90;;;-0.50;99.90;;;;;;5067174;28;20036;-72
2022/03/18 05:09:54;;;;;;;21.25;8.73;;;-0.40;99.90;;;;;;5033682;28;20039;-73
2022/03/18 05:12:20;;;;;;;23.30;9.85;;;-0.40;99.90;;;;;;5049455;28;20446;-72
2022/03/18 05:14:45;;;;;;;20.02;9.80;;;-0.40;99.90;;;;;;5040123;28;20052;-72
2022/03/18 05:17:11;;;;;;;15.18;8.98;;;-0.40;99.90;;;;;;5059331;28;20046;-72
2022/03/18 05:19:38;;;;;;;18.15;9.10;;;-0.40;99.90;;;;;;5048060;28;20119;-72
2022/03/18 05:22:06;;;;;;;21.83;10.02;;;-0.40;99.90;;;;;;5048044;28;20033;-72
2022/03/18 05:24:32;;;;;;;21.00;9.05;;;-0.40;99.90;;;;;;5044580;28;20052;-72
2022/03/18 05:26:58;;;;;;;22.77;9.93;;;-0.40;99.90;;;;;;5049436;28;20036;-72
2022/03/18 05:29:25;;;;;;;21.55;9.98;;;-0.40;99.90;;;;;;5050205;28;20040;-73
2022/03/18 05:31:51;;;;;;;25.17;9.82;;;-0.40;99.90;;;;;;5062658;28;20055;-73
2022/03/18 05:34:17;;;;;;;16.52;8.45;;;-0.40;99.90;;;;;;5034942;28;20044;-73
2022/03/18 05:36:43;;;;;;;15.07;8.02;;;-0.50;99.90;;;;;;5036321;28;20490;-72
2022/03/18 05:39:09;;;;;;;14.20;7.90;;;-0.50;99.90;;;;;;5050457;28;20041;-72
2022/03/18 05:41:35;;;;;;;20.73;8.95;;;-0.60;99.90;;;;;;5058858;28;20103;-72
2022/03/18 05:44:01;;;;;;;19.08;8.68;;;-0.50;99.90;;;;;;5052732;28;20484;-72
2022/03/18 05:46:26;;;;;;;18.75;9.13;;;-0.50;99.90;;;;;;5050788;28;20483;-72
2022/03/18 05:48:52;;;;;;;19.65;10.10;;;-0.60;99.90;;;;;;5051239;28;20053;-72
2022/03/18 05:51:18;;;;;;;21.92;9.05;;;-0.50;99.90;;;;;;5056916;28;20041;-72
2022/03/18 05:53:44;;;;;;;21.23;9.13;;;-0.50;99.90;;;;;;5049918;28;20067;-73
2022/03/18 05:58:55;;;;;;;21.52;9.45;;;-0.50;99.90;;;;;;5045978;28;20059;-73
2022/03/18 06:01:20;;;;;;;19.83;9.63;;;-0.50;99.90;;;;;;5050152;28;20172;-72
2022/03/18 06:03:48;;;;;;;15.98;9.20;;;-0.50;99.90;;;;;;5050255;28;20124;-73
2022/03/18 06:06:14;;;;;;;22.17;10.15;;;-0.50;99.90;;;;;;5050644;28;20071;-72
2022/03/18 06:14:07;;;;;;;19.75;9.60;;;-0.40;99.90;;;;;;5046610;28;20411;-72
2022/03/18 06:16:33;;;;;;;22.80;9.02;;;-0.40;99.90;;;;;;5043871;28;20040;-72
2022/03/18 06:18:58;;;;;;;18.58;9.60;;;-0.40;99.90;;;;;;5033929;28;20041;-72
2022/03/18 06:21:24;;;;;;;16.95;8.25;;;-0.40;99.90;;;;;;5048263;28;20060;-72
2022/03/18 06:23:49;;;;;;;16.23;8.60;;;-0.30;99.90;;;;;;5059342;28;20126;-72
2022/03/18 06:26:15;;;;;;;21.20;10.05;;;-0.30;99.90;;;;;;5049822;28;20178;-72
2022/03/18 06:28:41;;;;;;;16.30;9.15;;;-0.20;99.90;;;;;;5049563;28;20049;-72
2022/03/18 06:31:06;;;;;;;21.05;9.07;;;-0.20;99.90;;;;;;5042978;28;20043;-72
2022/03/18 06:33:33;;;;;;;28.77;10.75;;;-0.10;99.90;;;;;;5044159;28;20037;-72
2022/03/18 06:35:59;;;;;;;26.30;11.23;;;0.00;99.90;;;;;;5049156;28;20052;-72
2022/03/18 06:38:25;;;;;;;22.42;10.80;;;0.10;99.90;;;;;;5035167;28;20156;-72
2022/03/18 06:40:50;;;;;;;21.08;10.00;;;0.20;99.90;;;;;;5046092;28;20041;-72
2022/03/18 06:43:16;;;;;;;23.65;10.93;;;0.20;99.90;;;;;;5043681;28;20045;-72
2022/03/18 06:45:42;;;;;;;23.75;9.82;;;0.20;99.90;;;;;;5047930;28;20036;-71
2022/03/18 06:48:08;;;;;;;19.75;9.82;;;0.20;99.90;;;;;;5057382;28;20045;-72
2022/03/18 06:50:34;;;;;;;22.85;10.10;;;0.30;99.90;;;;;;5047497;28;20048;-72
2022/03/18 06:53:00;;;;;;;21.35;11.05;;;0.30;99.90;;;;;;5046272;28;20040;-72
2022/03/18 06:55:26;;;;;;;18.42;10.68;;;0.40;99.90;;;;;;5048639;28;20047;-72
2022/03/18 06:57:51;;;;;;;22.75;10.60;;;0.50;99.90;;;;;;5048830;28;20479;-72
2022/03/18 07:00:17;;;;;;;22.17;10.63;;;0.50;99.90;;;;;;5048232;28;20045;-72
2022/03/18 07:02:43;;;;;;;26.50;10.60;;;0.70;99.90;;;;;;5047968;28;20044;-72
2022/03/18 07:05:09;;;;;;;20.90;10.55;;;0.70;99.90;;;;;;5048870;28;20098;-72
2022/03/18 07:07:34;;;;;;;20.35;10.35;;;0.80;99.90;;;;;;5044603;28;20032;-71
2022/03/18 07:10:00;;;;;;;23.13;11.43;;;0.90;99.90;;;;;;5033428;28;20102;-71
2022/03/18 07:12:27;;;;;;;21.70;11.10;;;1.00;99.90;;;;;;5049274;28;20058;-71
2022/03/18 07:14:53;;;;;;;19.05;11.38;;;1.10;99.90;;;;;;5048673;28;20069;-70
2022/03/18 07:20:03;;;;;;;25.98;12.98;;;1.40;99.90;;;;;;5046776;28;20067;-71
2022/03/18 07:22:29;;;;;;;26.80;12.88;;;1.50;99.90;;;;;;5047367;28;20058;-71
2022/03/18 07:24:54;;;;;;;31.73;14.80;;;1.60;99.90;;;;;;5030692;28;20087;-70
2022/03/18 07:27:20;;;;;;;49.15;19.88;;;1.80;99.90;;;;;;5046120;28;20055;-70
2022/03/18 07:29:45;;;;;;;36.15;17.67;;;2.00;99.90;;;;;;5045203;28;20080;-70
2022/03/18 07:32:11;;;;;;;48.55;21.88;;;2.20;99.90;;;;;;5045210;28;20040;-70
2022/03/18 07:34:37;;;;;;;71.07;27.83;;;2.30;99.90;;;;;;5045240;28;20037;-70
2022/03/18 07:37:03;;;;;;;61.47;28.55;;;2.50;99.90;;;;;;5047050;28;20496;-70
2022/03/18 07:39:28;;;;;;;65.15;27.73;;;2.60;99.90;;;;;;5046286;28;20045;-70
2022/03/18 07:41:54;;;;;;;71.95;28.92;;;2.90;99.90;;;;;;5030541;28;20083;-70
2022/03/18 07:44:19;;;;;;;64.22;27.20;;;3.00;99.90;;;;;;5047483;28;20041;-70
2022/03/18 07:46:45;;;;;;;63.78;28.25;;;3.10;99.90;;;;;;5045579;28;20045;-70
2022/03/18 07:49:11;;;;;;;72.10;29.73;;;3.30;99.90;;;;;;5047055;28;20040;-70
2022/03/18 07:51:37;;;;;;;75.70;31.85;;;3.50;99.90;;;;;;5046806;28;20056;-70
2022/03/18 07:54:02;;;;;;;102.57;36.25;;;3.60;99.90;;;;;;5042689;28;20045;-70
2022/03/18 07:56:29;;;;;;;93.25;36.33;;;3.80;99.90;;;;;;5047358;28;20483;-70
2022/03/18 07:58:55;;;;;;;91.18;37.78;;;4.00;99.90;;;;;;5044511;28;20041;-70
2022/03/18 08:01:20;;;;;;;129.27;45.58;;;4.10;99.90;;;;;;5045319;28;20044;-70
2022/03/18 08:03:46;;;;;;;118.55;45.00;;;4.20;99.90;;;;;;5047220;28;20045;-70
2022/03/18 08:06:11;;;;;;;104.88;42.72;;;4.50;99.90;;;;;;5047010;28;20044;-70
2022/03/18 08:08:37;;;;;;;104.35;41.85;;;4.60;99.90;;;;;;5038930;28;20044;-70
2022/03/18 08:11:04;;;;;;;123.82;45.65;;;4.80;99.90;;;;;;5043093;28;20044;-70
2022/03/18 08:13:29;;;;;;;115.22;45.15;;;5.00;99.90;;;;;;5056981;28;20622;-70
2022/03/18 08:15:55;;;;;;;130.45;50.22;;;5.10;99.90;;;;;;5042085;28;20127;-70
2022/03/18 08:18:21;;;;;;;135.55;52.45;;;5.30;99.90;;;;;;5044833;28;20488;-70
2022/03/18 08:20:51;;;;;;;141.48;52.67;;;5.50;99.90;;;;;;5045147;28;20127;-70
2022/03/18 08:23:16;;;;;;;120.05;50.25;;;5.70;99.90;;;;;;5043873;28;20036;-70
2022/03/18 08:25:43;;;;;;;133.85;51.90;;;5.80;99.90;;;;;;5028303;28;20073;-70
2022/03/18 08:28:08;;;;;;;133.63;52.75;;;6.00;99.90;;;;;;5047326;28;20429;-70
2022/03/18 08:30:35;;;;;;;157.35;67.70;;;6.10;99.90;;;;;;5046941;28;20087;-70
2022/03/18 08:33:00;;;;;;;129.77;47.85;;;6.20;99.90;;;;;;5045980;28;20041;-70
2022/03/18 08:35:26;;;;;;;132.73;50.80;;;6.40;99.90;;;;;;5047484;28;20063;-70
2022/03/18 08:37:58;;;;;;;133.07;53.47;;;6.60;99.90;;;;;;5049045;28;20546;-70
2022/03/18 08:40:34;;;;;;;118.20;44.70;;;6.70;99.90;;;;;;5050362;28;20499;-71
2022/03/18 08:43:04;;;;;;;112.57;46.20;;;6.90;99.90;;;;;;5049615;28;20041;-70
2022/03/18 08:45:30;;;;;;;98.97;40.35;;;7.10;99.90;;;;;;5050057;28;20044;-70
2022/03/18 08:47:56;;;;;;;116.25;42.53;;;7.30;99.90;;;;;;5045455;28;20033;-70
2022/03/18 08:50:23;;;;;;;95.50;38.45;;;7.50;99.90;;;;;;5038553;28;20131;-70
2022/03/18 08:52:50;;;;;;;102.30;40.33;;;7.60;99.90;;;;;;5048557;28;20040;-70
2022/03/18 08:55:17;;;;;;;106.20;39.05;;;7.70;99.90;;;;;;5050370;28;20369;-70
2022/03/18 08:57:42;;;;;;;105.97;39.17;;;7.90;99.90;;;;;;5045943;28;20049;-70
2022/03/18 09:00:14;;;;;;;97.90;36.28;;;8.00;99.90;;;;;;5056446;28;20040;-70
2022/03/18 09:02:41;;;;;;;91.82;37.15;;;8.10;99.90;;;;;;5031646;28;20464;-71
2022/03/18 09:05:08;;;;;;;91.38;36.90;;;8.20;99.90;;;;;;5044070;28;20495;-71
2022/03/18 09:07:34;;;;;;;82.93;33.20;;;8.30;99.90;;;;;;5033028;28;20388;-71
2022/03/18 09:10:00;;;;;;;88.28;32.45;;;8.50;99.90;;;;;;5048375;28;20051;-71
2022/03/18 09:12:26;;;;;;;83.32;34.10;;;8.60;99.90;;;;;;5048873;28;20037;-71
2022/03/18 09:14:52;;;;;;;82.53;32.42;;;8.80;99.90;;;;;;5049709;28;20037;-71
2022/03/18 09:17:18;;;;;;;84.47;32.22;;;8.80;99.90;;;;;;5049599;28;20041;-71
2022/03/18 09:19:44;;;;;;;82.22;32.15;;;9.00;99.90;;;;;;5048995;28;20130;-71
2022/03/18 09:22:10;;;;;;;76.32;30.05;;;9.10;99.90;;;;;;5048662;28;20076;-71
2022/03/18 09:24:37;;;;;;;69.80;29.23;;;9.20;99.90;;;;;;5048858;28;20068;-71
2022/03/18 09:27:04;;;;;;;67.93;30.17;;;9.20;99.90;;;;;;5052897;28;20094;-71
2022/03/18 09:29:30;;;;;;;72.93;28.92;;;9.30;99.90;;;;;;5044623;28;20052;-71
2022/03/18 09:31:56;;;;;;;79.90;28.52;;;9.40;99.90;;;;;;5046488;28;20340;-71
2022/03/18 09:34:24;;;;;;;79.30;26.73;;;9.60;99.90;;;;;;5049577;28;20223;-70
2022/03/18 09:36:55;;;;;;;60.88;25.80;;;9.70;99.90;;;;;;5046346;28;20041;-71
2022/03/18 09:39:21;;;;;;;71.60;27.02;;;9.80;99.90;;;;;;5036492;28;20201;-71
2022/03/18 09:41:48;;;;;;;70.18;26.38;;;10.00;99.90;;;;;;5054250;28;20479;-70
2022/03/18 09:44:13;;;;;;;65.45;27.10;;;10.10;99.90;;;;;;5061801;28;20135;-71
2022/03/18 09:46:45;;;;;;;66.65;26.42;;;10.20;99.90;;;;;;5042977;28;20128;-71
2022/03/18 09:49:14;;;;;;;62.88;26.60;;;10.30;99.90;;;;;;5047346;28;20086;-71
2022/03/18 09:51:42;;;;;;;75.90;27.02;;;10.40;99.90;;;;;;5028265;28;20041;-71
2022/03/18 09:54:12;;;;;;;63.00;27.00;;;10.40;99.90;;;;;;5039996;28;20047;-71
2022/03/18 09:56:43;;;;;;;70.53;26.02;;;10.50;99.90;;;;;;5050144;28;20147;-70
2022/03/18 09:59:09;;;;;;;67.43;26.08;;;10.60;99.90;;;;;;5058035;28;20041;-71
2022/03/18 10:01:35;;;;;;;60.00;25.52;;;10.70;99.90;;;;;;5029833;28;20040;-70
2022/03/18 10:04:03;;;;;;;62.63;24.00;;;10.80;99.90;;;;;;5048242;28;20075;-70
2022/03/18 10:06:29;;;;;;;61.50;24.40;;;10.90;99.90;;;;;;5049156;28;20431;-71
2022/03/18 10:08:55;;;;;;;62.95;22.40;;;11.00;99.90;;;;;;5048842;28;20048;-71
2022/03/18 10:11:30;;;;;;;57.25;22.30;;;11.20;99.90;;;;;;5049190;28;20037;-70
2022/03/18 10:14:00;;;;;;;65.53;23.58;;;11.20;99.90;;;;;;5048687;28;20499;-71
2022/03/18 10:16:41;;;;;;;58.13;22.35;;;11.40;99.90;;;;;;5052498;28;20045;-69
2022/03/18 10:19:15;;;;;;;53.35;21.27;;;11.50;99.90;;;;;;5049823;28;20036;-72
2022/03/18 10:21:56;;;;;;;54.38;22.08;;;11.60;99.90;;;;;;5051536;28;20036;-71
2022/03/18 10:24:27;;;;;;;63.38;23.58;;;11.70;99.90;;;;;;5057442;28;20078;-71
2022/03/18 10:27:18;;;;;;;63.88;23.88;;;11.70;99.90;;;;;;5059438;28;20382;-70
2022/03/18 10:29:55;;;;;;;60.78;22.85;;;11.80;99.90;;;;;;5066042;28;20076;-71
2022/03/18 10:32:23;;;;;;;57.97;23.25;;;11.90;99.90;;;;;;5059375;28;20044;-71
2022/03/18 10:37:53;;;;;;;54.95;21.30;;;12.10;99.90;;;;;;5054571;28;20578;-71
2022/03/18 10:40:34;;;;;;;63.40;21.23;;;12.20;99.90;;;;;;5033897;28;20048;-71
2022/03/18 10:43:03;;;;;;;47.75;18.60;;;12.30;99.90;;;;;;5056026;28;20072;-71
2022/03/18 10:45:28;;;;;;;51.83;20.33;;;12.30;99.90;;;;;;5048780;28;20561;-71
2022/03/18 10:47:54;;;;;;;49.78;18.73;;;12.40;99.90;;;;;;5046105;28;20063;-71
2022/03/18 10:50:22;;;;;;;48.50;17.35;;;12.50;99.90;;;;;;5049680;28;20052;-72
2022/03/18 10:52:47;;;;;;;44.60;18.90;;;12.60;99.90;;;;;;5062460;28;20114;-71
2022/03/18 10:55:18;;;;;;;49.97;18.13;;;12.60;99.90;;;;;;5040696;28;20075;-71
2022/03/18 10:57:54;;;;;;;40.90;15.70;;;12.70;99.90;;;;;;5049240;28;20049;-71
2022/03/18 11:00:25;;;;;;;52.58;20.80;;;12.70;99.90;;;;;;5047527;28;20053;-71
2022/03/18 11:02:53;;;;;;;47.22;18.48;;;12.80;99.90;;;;;;5048051;28;20037;-71
2022/03/18 11:05:22;;;;;;;45.58;17.52;;;12.80;99.90;;;;;;5050756;28;20175;-71
2022/03/18 11:07:51;;;;;;;50.17;17.52;;;12.90;99.90;;;;;;5043141;28;20043;-71
2022/03/18 11:13:04;;;;;;;46.13;17.20;;;13.10;99.90;;;;;;5046773;28;20059;-71
2022/03/18 11:15:31;;;;;;;52.00;19.85;;;13.10;99.90;;;;;;5040022;28;20045;-71
2022/03/18 11:17:57;;;;;;;33.38;15.00;;;13.10;99.90;;;;;;5045466;28;20119;-71
2022/03/18 11:20:26;;;;;;;35.30;14.23;;;13.20;99.90;;;;;;5045459;28;20048;-71
2022/03/18 11:22:51;;;;;;;38.55;15.32;;;13.30;99.90;;;;;;5044738;28;20048;-71
2022/03/18 11:25:19;;;;;;;46.97;17.40;;;13.40;99.90;;;;;;5046662;28;20037;-71
2022/03/18 11:27:45;;;;;;;49.17;18.10;;;13.50;99.90;;;;;;5057337;28;20037;-71
2022/03/18 11:30:32;;;;;;;41.85;16.63;;;13.50;99.90;;;;;;5047869;28;20040;-70
2022/03/18 11:33:10;;;;;;;40.95;15.75;;;13.50;99.90;;;;;;5028307;28;20118;-71
2022/03/18 11:36:02;;;;;;;36.47;14.48;;;13.60;99.90;;;;;;5047023;28;20491;-71
2022/03/18 11:38:59;;;;;;;34.10;13.35;;;13.70;99.90;;;;;;5052255;28;20041;-70
2022/03/18 11:41:57;;;;;;;34.50;13.68;;;13.80;99.90;;;;;;5047091;28;20083;-71
2022/03/18 11:44:44;;;;;;;35.33;15.65;;;13.80;99.90;;;;;;5044496;28;20080;-71
2022/03/18 11:47:34;;;;;;;44.55;17.95;;;13.90;99.90;;;;;;5041898;28;20120;-69
2022/03/18 11:50:02;;;;;;;44.67;15.98;;;14.00;99.90;;;;;;5044150;28;20045;-70
2022/03/18 11:52:28;;;;;;;34.00;15.30;;;14.10;99.90;;;;;;5043860;28;20036;-71
2022/03/18 11:55:10;;;;;;;35.17;12.82;;;14.20;99.90;;;;;;5048783;28;20045;-70
2022/03/18 11:57:43;;;;;;;37.03;14.63;;;14.40;99.90;;;;;;5060639;28;20795;-71
2022/03/18 12:00:32;;;;;;;38.03;15.63;;;14.50;99.90;;;;;;5043453;28;20065;-71
2022/03/18 12:03:00;;;;;;;48.47;16.23;;;14.70;99.90;;;;;;5047271;28;20059;-71
2022/03/18 12:05:30;;;;;;;34.10;13.27;;;14.70;99.90;;;;;;5048069;28;20048;-71
2022/03/18 12:07:57;;;;;;;34.20;12.07;;;14.90;99.90;;;;;;5045801;28;20045;-71
2022/03/18 12:10:39;;;;;;;35.85;13.52;;;14.90;99.90;;;;;;5044838;28;20522;-71
2022/03/18 12:13:05;;;;;;;33.63;13.07;;;15.00;99.90;;;;;;5051705;28;20056;-70
2022/03/18 12:15:35;;;;;;;30.30;13.27;;;14.90;99.90;;;;;;5051670;28;20051;-71
2022/03/18 12:18:01;;;;;;;26.92;12.45;;;14.80;99.90;;;;;;5050720;28;20040;-71
2022/03/18 12:20:32;;;;;;;34.10;13.93;;;14.70;99.90;;;;;;5060926;28;20049;-71
2022/03/18 12:23:08;;;;;;;38.70;13.63;;;14.80;99.90;;;;;;5056159;28;20043;-70
2022/03/18 12:25:36;;;;;;;35.42;14.40;;;14.70;99.90;;;;;;5051859;28;20033;-71
2022/03/18 12:28:02;;;;;;;45.50;13.88;;;14.60;99.90;;;;;;5050274;28;20515;-71
2022/03/18 12:30:29;;;;;;;38.35;15.43;;;14.60;99.90;;;;;;5049863;28;20106;-70
2022/03/18 12:32:59;;;;;;;31.02;12.48;;;14.40;99.90;;;;;;5045584;28;20045;-71
2022/03/18 12:35:27;;;;;;;21.23;5.75;;;14.40;99.90;;;;;;5047576;28;20124;-70
2022/03/18 12:38:10;;;;;;;18.70;5.65;;;14.40;99.90;;;;;;5068031;28;20092;-69
2022/03/18 12:40:56;;;;;;;25.58;7.57;;;14.30;99.90;;;;;;5033238;28;20044;-70
2022/03/18 12:43:24;;;;;;;27.98;9.18;;;14.20;99.90;;;;;;5067863;28;20040;-70
2022/03/18 12:45:50;;;;;;;20.17;9.50;;;14.20;99.90;;;;;;5051554;28;20095;-69
2022/03/18 12:48:18;;;;;;;23.08;8.30;;;14.10;99.90;;;;;;5066354;28;20041;-70
2022/03/18 12:50:51;;;;;;;33.15;10.50;;;14.10;99.90;;;;;;5051151;28;20049;-69
2022/03/18 12:53:23;;;;;;;27.52;8.23;;;14.30;99.90;;;;;;5047282;28;20072;-70
2022/03/18 12:55:54;;;;;;;25.83;9.10;;;14.60;99.90;;;;;;5049574;28;20048;-70
2022/03/18 12:58:21;;;;;;;24.98;9.05;;;14.80;99.90;;;;;;5067200;28;20457;-71
2022/03/18 13:00:55;;;;;;;26.42;10.48;;;15.20;99.90;;;;;;5044936;28;20045;-70
2022/03/18 13:03:26;;;;;;;25.45;9.75;;;15.40;99.90;;;;;;5049233;28;20045;-70